createdAt,value
2018-04-13T00:02:21.471Z,97628.80
2018-04-13T00:04:50.897Z,97626.23
2018-04-13T00:07:21.010Z,97635.20
2018-04-13T00:09:50.321Z,97631.42
2018-04-13T00:12:19.843Z,97631.45
2018-04-13T00:14:48.261Z,97631.28
2018-04-13T00:17:16.652Z,97634.87
2018-04-13T00:19:45.064Z,97636.45
2018-04-13T00:22:14.536Z,97637.52
2018-04-13T00:24:44.490Z,97638.87
2018-04-13T00:27:12.879Z,97636.78
2018-04-13T00:29:42.099Z,97637.48
2018-04-13T00:32:11.744Z,97634.55
2018-04-13T00:34:40.735Z,97635.23
2018-04-13T00:37:10.219Z,97635.39
2018-04-13T00:39:38.552Z,97635.64
2018-04-13T00:42:07.061Z,97633.56
2018-04-13T00:44:36.628Z,97631.42
2018-04-13T00:47:05.429Z,97635.03
2018-04-13T00:49:34.706Z,97637.02
2018-04-13T00:52:04.967Z,97635.03
2018-04-13T00:54:33.342Z,97640.26
2018-04-13T00:57:02.572Z,97639.08
2018-04-13T00:59:30.964Z,97647.38
2018-04-13T01:01:59.352Z,97662.30
2018-04-13T01:04:27.806Z,97678.50
2018-04-13T01:06:58.414Z,97669.74
2018-04-13T01:09:26.775Z,97652.54
2018-04-13T01:11:56.257Z,97664.60
2018-04-13T01:14:25.212Z,97676.63
2018-04-13T01:16:54.697Z,97673.55
2018-04-13T01:19:24.188Z,97664.98
2018-04-13T01:21:54.144Z,97662.28
2018-04-13T01:24:23.783Z,97660.63
2018-04-13T01:26:52.965Z,97656.09
2018-04-13T01:29:21.403Z,97662.73
2018-04-13T01:31:50.897Z,97658.93
2018-04-13T01:34:20.053Z,97654.64
2018-04-13T01:36:48.401Z,97651.66
2018-04-13T01:39:18.916Z,97660.97
2018-04-13T01:41:49.051Z,97655.84
2018-04-13T01:44:18.693Z,97652.46
2018-04-13T01:46:48.163Z,97659.38
2018-04-13T01:49:17.920Z,97657.30
2018-04-13T01:51:47.742Z,97655.72
2018-04-13T01:54:17.685Z,97656.19
2018-04-13T01:56:51.990Z,97658.57
2018-04-13T01:59:22.565Z,97653.13
2018-04-13T02:01:53.092Z,97651.88
2018-04-13T02:04:22.579Z,97653.08
2018-04-13T02:06:53.760Z,97651.56
2018-04-13T02:09:22.865Z,97651.28
2018-04-13T02:11:51.305Z,97646.54
2018-04-13T02:14:20.593Z,97646.13
2018-04-13T02:16:51.013Z,97647.84
2018-04-13T02:19:20.393Z,97648.31
2018-04-13T02:21:49.867Z,97646.08
2018-04-13T02:24:18.506Z,97645.64
2018-04-13T02:26:46.901Z,97644.47
2018-04-13T02:29:15.278Z,97649.09
2018-04-13T02:31:45.026Z,97640.98
2018-04-13T02:34:13.378Z,97646.10
2018-04-13T02:36:42.650Z,97640.84
2018-04-13T02:39:11.725Z,97644.05
2018-04-13T02:41:40.778Z,97649.31
2018-04-13T02:44:10.195Z,97647.64
2018-04-13T02:46:38.817Z,97646.81
2018-04-13T02:49:07.794Z,97646.78
2018-04-13T02:51:37.292Z,97643.30
2018-04-13T02:54:08.293Z,97639.13
2018-04-13T02:56:37.561Z,97640.89
2018-04-13T02:59:06.786Z,97638.28
2018-04-13T03:01:37.314Z,97636.92
2018-04-13T03:04:08.390Z,97635.00
2018-04-13T03:06:37.645Z,97641.09
2018-04-13T03:09:06.116Z,97637.75
2018-04-13T03:11:35.134Z,97634.96
2018-04-13T03:14:05.118Z,97636.08
2018-04-13T03:16:34.410Z,97640.27
2018-04-13T03:19:03.423Z,97638.77
2018-04-13T03:21:31.879Z,97637.59
2018-04-13T03:24:00.649Z,97653.40
2018-04-13T03:26:32.041Z,97653.83
2018-04-13T03:29:00.404Z,97661.27
2018-04-13T03:31:30.655Z,97659.79
2018-04-13T03:33:59.248Z,97657.88
2018-04-13T03:36:28.530Z,97659.30
2018-04-13T03:38:57.105Z,97662.17
2018-04-13T03:41:25.425Z,97665.75
2018-04-13T03:43:55.118Z,97664.03
2018-04-13T03:46:24.375Z,97668.76
2018-04-13T03:48:53.627Z,97669.97
2018-04-13T03:51:23.018Z,97663.50
2018-04-13T03:53:52.534Z,97670.84
2018-04-13T03:56:23.493Z,97665.23
2018-04-13T03:58:52.309Z,97670.24
2018-04-13T04:01:20.871Z,97672.44
2018-04-13T04:03:50.048Z,97669.30
2018-04-13T04:06:18.471Z,97674.38
2018-04-13T04:08:47.331Z,97674.30
2018-04-13T04:11:15.673Z,97681.10
2018-04-13T04:13:44.838Z,97678.36
2018-04-13T04:16:14.222Z,97676.07
2018-04-13T04:18:45.084Z,97678.09
2018-04-13T04:21:25.879Z,97685.17
2018-04-13T04:24:06.679Z,97689.73
2018-04-13T04:26:46.855Z,97692.08
2018-04-13T04:29:15.477Z,97696.73
2018-04-13T04:31:44.539Z,97687.67
2018-04-13T04:34:12.970Z,97690.68
2018-04-13T04:36:41.678Z,97693.00
2018-04-13T04:39:12.526Z,97698.42
2018-04-13T04:41:42.326Z,97693.88
2018-04-13T04:44:11.632Z,97684.87
2018-04-13T04:46:40.514Z,97688.89
2018-04-13T04:49:09.643Z,97685.31
2018-04-13T04:51:38.786Z,97690.43
2018-04-13T04:54:08.422Z,97684.11
2018-04-13T04:56:36.997Z,97683.14
2018-04-13T04:59:05.420Z,97688.59
2018-04-13T05:01:35.534Z,97692.86
2018-04-13T05:04:05.460Z,97694.53
2018-04-13T05:06:35.077Z,97695.72
2018-04-13T05:09:04.768Z,97701.23
2018-04-13T05:11:33.826Z,97705.02
2018-04-13T05:14:03.350Z,97707.50
2018-04-13T05:16:31.860Z,97709.89
2018-04-13T05:19:01.130Z,97709.48
2018-04-13T05:21:31.147Z,97712.33
2018-04-13T05:24:02.413Z,97717.90
2018-04-13T05:26:31.787Z,97726.93
2018-04-13T05:29:01.072Z,97734.09
2018-04-13T05:31:30.433Z,97741.00
2018-04-13T05:33:58.783Z,97741.31
2018-04-13T05:36:27.979Z,97740.17
2018-04-13T05:38:57.089Z,97740.02
2018-04-13T05:41:27.457Z,97737.31
2018-04-13T05:43:55.954Z,97727.87
2018-04-13T05:46:25.101Z,97726.34
2018-04-13T05:48:54.313Z,97726.00
2018-04-13T05:51:22.762Z,97726.26
2018-04-13T05:53:53.091Z,97726.67
2018-04-13T05:56:23.007Z,97732.42
2018-04-13T05:58:52.799Z,97743.75
2018-04-13T06:01:21.969Z,97741.62
2018-04-13T06:03:51.203Z,97739.86
2018-04-13T06:06:19.972Z,97746.34
2018-04-13T06:08:48.378Z,97745.08
2018-04-13T06:11:18.237Z,97744.84
2018-04-13T06:13:47.432Z,97749.68
2018-04-13T06:16:16.781Z,97753.66
2018-04-13T06:18:45.219Z,97747.30
2018-04-13T06:21:13.567Z,97762.25
2018-04-13T06:23:44.373Z,97775.02
2018-04-13T06:26:13.965Z,97788.73
2018-04-13T06:28:44.038Z,97804.16
2018-04-13T06:31:13.017Z,97824.12
2018-04-13T06:33:42.521Z,97838.69
2018-04-13T06:36:10.905Z,97848.84
2018-04-13T06:38:40.780Z,97854.03
2018-04-13T06:41:09.887Z,97854.92
2018-04-13T06:43:39.563Z,97863.62
2018-04-13T06:46:08.636Z,97879.02
2018-04-13T06:48:38.377Z,97891.70
2018-04-13T06:51:07.079Z,97895.69
2018-04-13T06:53:36.826Z,97901.27
2018-04-13T06:56:05.412Z,97907.06
2018-04-13T06:58:34.219Z,97916.56
2018-04-13T07:01:03.857Z,97917.09
2018-04-13T07:03:33.667Z,97919.83
2018-04-13T07:06:02.442Z,97917.87
2018-04-13T07:08:32.799Z,97916.44
2018-04-13T07:11:01.183Z,97916.86
2018-04-13T07:13:30.669Z,97922.33
2018-04-13T07:16:00.857Z,97918.04
2018-04-13T07:18:29.273Z,97916.58
2018-04-13T07:20:57.857Z,97912.25
2018-04-13T07:23:26.263Z,97917.28
2018-04-13T07:25:54.871Z,97917.59
2018-04-13T07:28:23.574Z,97917.47
2018-04-13T07:30:53.065Z,97919.23
2018-04-13T07:33:22.341Z,97924.88
2018-04-13T07:35:52.713Z,97935.77
2018-04-13T07:38:21.744Z,97934.55
2018-04-13T07:40:52.048Z,97933.02
2018-04-13T07:43:20.430Z,97932.69
2018-04-13T07:45:48.820Z,97942.91
2018-04-13T07:48:17.795Z,97940.52
2018-04-13T07:50:45.689Z,97932.16
2018-04-13T07:53:14.980Z,97932.71
2018-04-13T07:55:43.325Z,97940.67
2018-04-13T07:58:11.693Z,97936.55
2018-04-13T08:00:40.037Z,97934.48
2018-04-13T08:03:08.699Z,97935.39
2018-04-13T08:05:37.673Z,97938.30
2018-04-13T08:08:06.052Z,97932.64
2018-04-13T08:10:34.411Z,97915.84
2018-04-13T08:13:02.802Z,97928.95
2018-04-13T08:15:32.111Z,97929.23
2018-04-13T08:18:01.248Z,97930.62
2018-04-13T08:20:30.312Z,97927.00
2018-04-13T08:22:58.678Z,97937.05
2018-04-13T08:25:27.074Z,97932.16
2018-04-13T08:27:56.952Z,97936.55
2018-04-13T08:30:25.482Z,97936.44
2018-04-13T08:32:53.886Z,97943.33
2018-04-13T08:35:22.319Z,97936.54
2018-04-13T08:37:50.658Z,97941.52
2018-04-13T08:40:19.036Z,97946.62
2018-04-13T08:42:47.391Z,97951.95
2018-04-13T08:45:15.745Z,97955.72
2018-04-13T08:47:44.098Z,97959.48
2018-04-13T08:50:12.472Z,97969.72
2018-04-13T08:52:41.163Z,97976.27
2018-04-13T08:55:10.760Z,97977.25
2018-04-13T08:57:39.116Z,97971.73
2018-04-13T09:00:07.749Z,97973.77
2018-04-13T09:02:36.110Z,97972.73
2018-04-13T09:05:04.467Z,97981.72
2018-04-13T09:07:32.805Z,97984.31
2018-04-13T09:10:01.203Z,97996.41
2018-04-13T09:12:29.562Z,98001.23
2018-04-13T09:14:58.572Z,98002.77
2018-04-13T09:17:27.551Z,98000.55
2018-04-13T09:19:55.923Z,98002.97
2018-04-13T09:22:25.317Z,98001.72
2018-04-13T09:24:54.503Z,98003.27
2018-04-13T09:27:22.910Z,98001.86
2018-04-13T09:29:51.559Z,98011.59
2018-04-13T09:32:19.917Z,98014.38
2018-04-13T09:34:48.290Z,98022.03
2018-04-13T09:37:17.098Z,98023.31
2018-04-13T09:39:45.556Z,98010.67
2018-04-13T09:42:13.905Z,98008.77
2018-04-13T09:44:42.322Z,98009.13
2018-04-13T09:47:11.025Z,98007.10
2018-04-13T09:49:40.258Z,98011.35
2018-04-13T09:52:08.725Z,98018.44
2018-04-13T09:54:37.386Z,98018.98
2018-04-13T09:57:05.733Z,98019.52
2018-04-13T09:59:34.397Z,98015.83
2018-04-13T10:02:02.827Z,98014.97
2018-04-13T10:04:36.998Z,98012.39
2018-04-13T10:07:05.388Z,98001.21
2018-04-13T10:09:35.419Z,98006.58
2018-04-13T10:12:04.706Z,98005.14
2018-04-13T10:14:34.437Z,98005.34
2018-04-13T10:17:03.197Z,98002.81
2018-04-13T10:19:32.179Z,98004.27
2018-04-13T10:22:01.737Z,98001.27
2018-04-13T10:24:31.848Z,98009.89
2018-04-13T10:27:00.232Z,98013.80
2018-04-13T10:29:30.388Z,98013.36
2018-04-13T10:31:58.743Z,98016.85
2018-04-13T10:34:29.688Z,98020.79
2018-04-13T10:36:58.995Z,98022.74
2018-04-13T10:39:28.132Z,98025.47
2018-04-13T10:41:56.503Z,98028.69
2018-04-13T10:44:25.070Z,98026.09
2018-04-13T10:46:53.436Z,98031.62
2018-04-13T10:49:22.775Z,98025.82
2018-04-13T10:51:52.266Z,98031.05
2018-04-13T10:54:20.600Z,98033.08
2018-04-13T10:56:48.969Z,98042.95
2018-04-13T10:59:18.074Z,98043.42
2018-04-13T11:01:46.492Z,98053.83
2018-04-13T11:04:14.887Z,98048.83
2018-04-13T11:06:43.241Z,98055.89
2018-04-13T11:09:11.601Z,98052.72
2018-04-13T11:11:40.785Z,98060.15
2018-04-13T11:14:09.718Z,98062.63
2018-04-13T11:16:38.047Z,98068.12
2018-04-13T11:19:06.414Z,98067.17
2018-04-13T11:21:35.107Z,98068.16
2018-04-13T11:24:03.503Z,98059.22
2018-04-13T11:26:31.834Z,98074.33
2018-04-13T11:29:01.822Z,98069.86
2018-04-13T11:31:30.168Z,98065.64
2018-04-13T11:33:58.550Z,98070.67
2018-04-13T11:36:27.379Z,98078.38
2018-04-13T11:38:55.823Z,98077.02
2018-04-13T11:41:25.335Z,98069.65
2018-04-13T11:43:54.626Z,98084.41
2018-04-13T11:46:23.381Z,98073.42
2018-04-13T11:48:52.037Z,98077.11
2018-04-13T11:51:20.406Z,98076.77
2018-04-13T11:53:48.877Z,98075.96
2018-04-13T11:56:18.455Z,98080.87
2018-04-13T11:58:46.811Z,98080.73
2018-04-13T12:01:15.839Z,98078.50
2018-04-13T12:03:44.332Z,98091.84
2018-04-13T12:06:13.460Z,98099.44
2018-04-13T12:08:41.870Z,98109.98
2018-04-13T12:11:10.212Z,98110.56
2018-04-13T12:13:38.623Z,98105.89
2018-04-13T12:16:08.288Z,98114.89
2018-04-13T12:18:37.310Z,98122.05
2018-04-13T12:21:05.680Z,98128.89
2018-04-13T12:23:34.586Z,98130.45
2018-04-13T12:26:02.952Z,98146.98
2018-04-13T12:28:32.174Z,98150.69
2018-04-13T12:31:00.587Z,98154.75
2018-04-13T12:33:28.966Z,98157.86
2018-04-13T12:35:59.642Z,98164.44
2018-04-13T12:38:28.125Z,98172.68
2018-04-13T12:40:56.552Z,98175.47
2018-04-13T12:43:25.776Z,98186.66
2018-04-13T12:45:55.013Z,98198.38
2018-04-13T12:48:23.356Z,98208.08
2018-04-13T12:50:52.462Z,98203.20
2018-04-13T12:53:20.814Z,98206.05
2018-04-13T12:55:49.279Z,98197.11
2018-04-13T12:58:18.028Z,98200.23
2018-04-13T13:00:47.649Z,98204.22
2018-04-13T13:03:16.520Z,98214.84
2018-04-13T13:05:46.339Z,98217.14
2018-04-13T13:08:15.541Z,98213.22
2018-04-13T13:10:43.934Z,98219.16
2018-04-13T13:13:12.274Z,98242.67
2018-04-13T13:15:41.129Z,98247.05
2018-04-13T13:18:11.126Z,98248.22
2018-04-13T13:20:39.880Z,98256.34
2018-04-13T13:23:08.244Z,98264.16
2018-04-13T13:25:37.448Z,98264.44
2018-04-13T13:28:06.977Z,98258.36
2018-04-13T13:30:35.339Z,98276.16
2018-04-13T13:33:05.536Z,98288.24
2018-04-13T13:35:34.829Z,98296.70
2018-04-13T13:38:04.073Z,98309.48
2018-04-13T13:40:32.499Z,98315.08
2018-04-13T13:43:01.734Z,98321.70
2018-04-13T13:45:30.839Z,98326.67
2018-04-13T13:48:00.071Z,98327.78
2018-04-13T13:50:28.531Z,98337.78
2018-04-13T13:52:57.797Z,98347.48
2018-04-13T13:55:26.160Z,98348.95
2018-04-13T13:57:54.516Z,98362.09
2018-04-13T14:00:23.689Z,98350.27
2018-04-13T14:02:53.126Z,98350.17
2018-04-13T14:05:22.722Z,98354.84
2018-04-13T14:07:51.108Z,98374.86
2018-04-13T14:10:21.954Z,98353.95
2018-04-13T14:12:50.336Z,98357.86
2018-04-13T14:15:18.887Z,98366.20
2018-04-13T14:17:47.247Z,98362.97
2018-04-13T14:20:15.787Z,98374.86
2018-04-13T14:22:44.233Z,98384.61
2018-04-13T14:25:13.973Z,98391.63
2018-04-13T14:27:43.079Z,98399.80
2018-04-13T14:30:12.297Z,98395.13
2018-04-13T14:32:40.991Z,98409.34
2018-04-13T14:35:09.834Z,98399.91
2018-04-13T14:37:38.201Z,98399.84
2018-04-13T14:40:06.553Z,98395.31
2018-04-13T14:42:34.927Z,98395.19
2018-04-13T14:45:03.265Z,98406.89
2018-04-13T14:47:33.918Z,98412.06
2018-04-13T14:50:02.910Z,98412.63
2018-04-13T14:52:32.139Z,98410.45
2018-04-13T14:55:01.045Z,98425.90
2018-04-13T14:57:30.303Z,98431.29
2018-04-13T14:59:58.643Z,98439.66
2018-04-13T15:02:27.242Z,98436.44
2018-04-13T15:04:55.982Z,98438.77
2018-04-13T15:07:25.756Z,98442.30
2018-04-13T15:09:54.977Z,98433.34
2018-04-13T15:12:23.620Z,98440.80
2018-04-13T15:14:53.266Z,98446.93
2018-04-13T15:17:21.667Z,98436.02
2018-04-13T15:19:50.725Z,98452.20
2018-04-13T15:22:20.022Z,98448.27
2018-04-13T15:24:49.191Z,98451.61
2018-04-13T15:27:18.453Z,98453.89
2018-04-13T15:29:47.861Z,98468.66
2018-04-13T15:32:16.203Z,98474.86
2018-04-13T15:34:45.196Z,98485.06
2018-04-13T15:37:14.939Z,98483.73
2018-04-13T15:39:44.186Z,98469.66
2018-04-13T15:42:12.975Z,98477.30
2018-04-13T15:44:41.421Z,98477.00
2018-04-13T15:47:13.314Z,98482.53
2018-04-13T15:49:41.710Z,98490.88
2018-04-13T15:52:11.005Z,98483.82
2018-04-13T15:54:40.192Z,98490.84
2018-04-13T15:57:09.246Z,98485.13
2018-04-13T15:59:38.539Z,98485.06
2018-04-13T16:02:08.338Z,98487.66
2018-04-13T16:04:37.491Z,98498.56
2018-04-13T16:07:05.857Z,98492.39
2018-04-13T16:09:34.205Z,98501.00
2018-04-13T16:12:02.625Z,98536.52
2018-04-13T16:14:31.004Z,98566.72
2018-04-13T16:17:00.313Z,98564.91
2018-04-13T16:19:28.681Z,98572.91
2018-04-13T16:21:57.774Z,98568.30
2018-04-13T16:24:26.142Z,98576.41
2018-04-13T16:26:54.801Z,98578.34
2018-04-13T16:29:23.200Z,98585.98
2018-04-13T16:31:51.815Z,98593.22
2018-04-13T16:34:20.165Z,98595.02
2018-04-13T16:36:48.733Z,98593.27
2018-04-13T16:39:18.485Z,98594.20
2018-04-13T16:41:46.905Z,98599.37
2018-04-13T16:44:18.050Z,98601.73
2018-04-13T16:46:48.205Z,98611.43
2018-04-13T16:49:16.556Z,98617.81
2018-04-13T16:51:46.453Z,98631.46
2018-04-13T16:54:16.024Z,98625.98
2018-04-13T16:56:45.163Z,98627.40
2018-04-13T16:59:15.589Z,98623.25
2018-04-13T17:01:44.648Z,98624.40
2018-04-13T17:04:13.068Z,98626.70
2018-04-13T17:06:42.372Z,98627.78
2018-04-13T17:09:11.962Z,98625.89
2018-04-13T17:11:41.539Z,98632.40
2018-04-13T17:14:09.950Z,98633.88
2018-04-13T17:16:39.903Z,98635.38
2018-04-13T17:19:09.384Z,98632.13
2018-04-13T17:21:38.189Z,98634.80
2018-04-13T17:24:07.219Z,98642.57
2018-04-13T17:26:35.724Z,98646.06
2018-04-13T17:29:04.984Z,98644.58
2018-04-13T17:31:34.906Z,98651.14
2018-04-13T17:34:03.377Z,98651.93
2018-04-13T17:36:33.489Z,98658.31
2018-04-13T17:39:02.977Z,98659.83
2018-04-13T17:41:31.937Z,98658.83
2018-04-13T17:44:00.562Z,98664.45
2018-04-13T17:46:28.916Z,98667.67
2018-04-13T17:48:57.306Z,98669.91
2018-04-13T17:51:25.709Z,98670.24
2018-04-13T17:53:54.051Z,98665.49
2018-04-13T17:56:22.719Z,98665.73
2018-04-13T17:58:51.123Z,98663.42
2018-04-13T18:01:19.489Z,98666.14
2018-04-13T18:03:48.610Z,98679.69
2018-04-13T18:06:16.979Z,98684.09
2018-04-13T18:08:47.931Z,98686.09
2018-04-13T18:11:18.621Z,98690.36
2018-04-13T18:13:50.226Z,98687.88
2018-04-13T18:16:18.928Z,98697.53
2018-04-13T18:18:48.086Z,98703.61
2018-04-13T18:21:17.434Z,98698.88
2018-04-13T18:23:45.742Z,98704.40
2018-04-13T18:26:14.114Z,98700.91
2018-04-13T18:28:44.286Z,98701.21
2018-04-13T18:31:14.332Z,98699.16
2018-04-13T18:33:43.530Z,98707.21
2018-04-13T18:36:12.589Z,98714.92
2018-04-13T18:38:41.201Z,98721.59
2018-04-13T18:41:09.623Z,98723.06
2018-04-13T18:43:38.061Z,98722.52
2018-04-13T18:46:08.951Z,98731.06
2018-04-13T18:48:37.406Z,98725.45
2018-04-13T18:51:06.364Z,98728.89
2018-04-13T18:53:34.820Z,98736.25
2018-04-13T18:56:03.544Z,98743.83
2018-04-13T18:58:31.916Z,98739.18
2018-04-13T19:01:01.360Z,98738.22
2018-04-13T19:03:30.188Z,98744.56
2018-04-13T19:05:58.539Z,98740.76
2018-04-13T19:08:27.119Z,98743.88
2018-04-13T19:10:55.760Z,98750.14
2018-04-13T19:13:24.184Z,98754.36
2018-04-13T19:15:53.730Z,98754.86
2018-04-13T19:18:22.065Z,98757.63
2018-04-13T19:20:51.095Z,98758.70
2018-04-13T19:23:19.522Z,98759.02
2018-04-13T19:25:48.121Z,98761.60
2018-04-13T19:28:16.843Z,98756.55
2018-04-13T19:30:45.515Z,98754.97
2018-04-13T19:33:15.476Z,98764.63
2018-04-13T19:35:43.812Z,98763.66
2018-04-13T19:38:13.395Z,98759.20
2018-04-13T19:40:41.840Z,98752.98
2018-04-13T19:43:10.248Z,98761.24
2018-04-13T19:45:40.954Z,98765.22
2018-04-13T19:48:09.647Z,98767.51
2018-04-13T19:50:38.850Z,98769.80
2018-04-13T19:53:07.916Z,98768.66
2018-04-13T19:55:37.175Z,98770.45
2018-04-13T19:58:06.640Z,98782.32
2018-04-13T20:00:35.013Z,98793.58
2018-04-13T20:03:04.457Z,98794.99
2018-04-13T20:05:32.984Z,98791.23
2018-04-13T20:08:01.757Z,98789.06
2018-04-13T20:10:30.126Z,98784.19
2018-04-13T20:12:59.527Z,98788.34
2018-04-13T20:15:27.876Z,98789.68
2018-04-13T20:17:56.239Z,98788.48
2018-04-13T20:20:24.570Z,98797.75
2018-04-13T20:22:53.756Z,98808.10
2018-04-13T20:25:22.375Z,98813.57
2018-04-13T20:27:50.733Z,98827.44
2018-04-13T20:30:20.004Z,98839.92
2018-04-13T20:32:48.366Z,98854.42
2018-04-13T20:35:16.799Z,98862.20
2018-04-13T20:37:46.388Z,98862.97
2018-04-13T20:40:14.891Z,98861.89
2018-04-13T20:42:43.698Z,98858.91
2018-04-13T20:45:12.052Z,98859.19
2018-04-13T20:47:41.334Z,98858.11
2018-04-13T20:50:10.879Z,98854.94
2018-04-13T20:52:40.010Z,98855.41
2018-04-13T20:55:09.254Z,98852.77
2018-04-13T20:57:37.619Z,98852.98
2018-04-13T21:00:06.459Z,98860.84
2018-04-13T21:02:34.884Z,98860.53
2018-04-13T21:05:03.201Z,98859.74
2018-04-13T21:07:32.131Z,98853.23
2018-04-13T21:10:00.477Z,98863.35
2018-04-13T21:12:29.347Z,98855.17
2018-04-13T21:14:58.666Z,98855.75
2018-04-13T21:17:27.035Z,98862.80
2018-04-13T21:19:56.107Z,98865.16
2018-04-13T21:22:24.529Z,98866.40
2018-04-13T21:24:52.891Z,98868.26
2018-04-13T21:27:22.131Z,98865.39
2018-04-13T21:29:51.369Z,98865.50
2018-04-13T21:32:20.638Z,98858.88
2018-04-13T21:34:49.227Z,98854.22
2018-04-13T21:37:17.569Z,98862.37
2018-04-13T21:39:46.853Z,98859.69
2018-04-13T21:42:16.026Z,98863.50
2018-04-13T21:44:45.300Z,98871.41
2018-04-13T21:47:13.676Z,98884.97
2018-04-13T21:49:42.669Z,98885.90
2018-04-13T21:52:11.787Z,98886.08
2018-04-13T21:54:40.141Z,98879.68
2018-04-13T21:57:08.473Z,98868.45
2018-04-13T21:59:38.164Z,98861.12
2018-04-13T22:02:06.958Z,98865.72
2018-04-13T22:04:35.304Z,98852.70
2018-04-13T22:07:03.707Z,98859.52
2018-04-13T22:09:32.074Z,98866.03
2018-04-13T22:12:01.213Z,98870.06
2018-04-13T22:14:42.338Z,98880.94
2018-04-13T22:17:10.722Z,98886.97
2018-04-13T22:19:40.424Z,98891.80
2018-04-13T22:22:08.764Z,98893.06
2018-04-13T22:24:37.987Z,98888.09
2018-04-13T22:27:07.179Z,98893.75
2018-04-13T22:29:37.205Z,98897.78
2018-04-13T22:32:05.545Z,98905.63
2018-04-13T22:34:33.923Z,98914.89
2018-04-13T22:37:02.509Z,98917.27
2018-04-13T22:39:32.236Z,98924.09
2018-04-13T22:42:03.608Z,98933.91
2018-04-13T22:44:31.947Z,98930.87
2018-04-13T22:47:00.547Z,98933.38
2018-04-13T22:49:30.505Z,98927.31
2018-04-13T22:51:58.936Z,98931.83
2018-04-13T22:54:27.301Z,98932.20
2018-04-13T22:56:56.409Z,98923.65
2018-04-13T22:59:24.890Z,98930.73
2018-04-13T23:01:53.258Z,98938.45
2018-04-13T23:04:21.610Z,98942.28
2018-04-13T23:06:49.972Z,98940.32
2018-04-13T23:09:18.340Z,98945.77
2018-04-13T23:11:47.219Z,98942.13
2018-04-13T23:14:15.536Z,98937.89
2018-04-13T23:16:44.262Z,98953.25
2018-04-13T23:19:12.599Z,98952.37
2018-04-13T23:21:41.726Z,98946.26
2018-04-13T23:24:10.069Z,98951.66
2018-04-13T23:26:38.520Z,98962.64
2018-04-13T23:29:08.146Z,98962.48
2018-04-13T23:31:37.148Z,98969.08
2018-04-13T23:34:06.545Z,98966.74
2018-04-13T23:36:34.963Z,98975.94
2018-04-13T23:39:03.397Z,98981.38
2018-04-13T23:41:32.488Z,98988.62
2018-04-13T23:44:00.835Z,98993.67
2018-04-13T23:46:29.233Z,98983.61
2018-04-13T23:48:59.099Z,98985.56
2018-04-13T23:51:27.469Z,98982.73
2018-04-13T23:53:55.854Z,98980.27
2018-04-13T23:56:24.185Z,98978.38
2018-04-13T23:58:52.568Z,98978.23
